createdAt,value
2022-09-05T00:01:44.084Z,6.80
2022-09-05T00:06:55.265Z,7.05
2022-09-05T00:12:01.705Z,6.45
2022-09-05T00:17:16.889Z,6.75
2022-09-05T00:24:30.625Z,6.72
2022-09-05T00:27:59.662Z,6.10
2022-09-05T00:33:23.889Z,6.80
2022-09-05T00:38:36.817Z,6.47
2022-09-05T00:43:44.261Z,7.25
2022-09-05T00:48:52.206Z,6.78
2022-09-05T00:54:40.887Z,6.85
2022-09-05T01:00:03.017Z,7.65
2022-09-05T01:05:11.107Z,6.70
2022-09-05T01:10:23.729Z,7.50
2022-09-05T01:15:34.258Z,7.07
2022-09-05T01:20:56.633Z,7.40
2022-09-05T01:26:09.540Z,7.10
2022-09-05T01:31:24.558Z,7.70
2022-09-05T01:36:42.080Z,7.00
2022-09-05T01:41:50.424Z,7.57
2022-09-05T01:47:29.569Z,7.18
2022-09-05T01:53:00.486Z,7.50
2022-09-05T01:58:16.702Z,6.50
2022-09-05T02:03:32.368Z,7.45
2022-09-05T02:08:48.226Z,6.93
2022-09-05T02:13:58.147Z,6.97
2022-09-05T02:19:14.795Z,7.00
2022-09-05T02:24:22.528Z,7.00
2022-09-05T02:29:31.664Z,7.05
2022-09-05T02:34:44.776Z,7.72
2022-09-05T02:44:08.117Z,7.72
2022-09-05T02:45:26.667Z,7.90
2022-09-05T02:53:41.246Z,7.28
2022-09-05T02:57:44.681Z,7.30
2022-09-05T03:02:25.440Z,7.95
2022-09-05T03:07:52.598Z,7.65
2022-09-05T03:13:53.912Z,8.00
2022-09-05T03:19:26.321Z,8.18
2022-09-05T03:25:21.239Z,8.40
2022-09-05T03:30:24.951Z,8.40
2022-09-05T03:35:56.736Z,7.82
2022-09-05T03:41:12.837Z,8.85
2022-09-05T03:46:34.165Z,9.93
2022-09-05T03:57:06.778Z,8.90
2022-09-05T03:57:42.764Z,9.02
2022-09-05T04:08:10.246Z,8.68
2022-09-05T04:08:42.009Z,9.38
2022-09-05T04:13:52.268Z,8.70
2022-09-05T04:19:05.043Z,9.43
2022-09-05T04:24:11.589Z,9.30
2022-09-05T04:29:23.579Z,9.95
2022-09-05T04:34:49.871Z,9.13
2022-09-05T04:39:54.101Z,9.20
2022-09-05T04:45:03.161Z,9.50
2022-09-05T04:50:11.743Z,10.30
2022-09-05T04:55:17.207Z,9.27
2022-09-05T05:03:01.683Z,9.80
2022-09-05T05:06:12.050Z,9.30
2022-09-05T05:18:03.251Z,9.63
2022-09-05T05:18:06.544Z,9.43
2022-09-05T05:22:18.083Z,10.35
2022-09-05T05:27:25.835Z,9.23
2022-09-05T05:32:45.560Z,10.10
2022-09-05T05:37:54.423Z,9.95
2022-09-05T05:43:15.394Z,10.05
2022-09-05T05:48:31.828Z,9.88
2022-09-05T05:53:51.628Z,9.45
2022-09-05T05:59:08.959Z,9.60
2022-09-05T06:04:51.425Z,9.13
2022-09-05T06:14:51.067Z,9.48
2022-09-05T06:16:23.984Z,9.65
2022-09-05T06:22:13.837Z,10.25
2022-09-05T06:27:58.007Z,9.40
2022-09-05T06:33:14.559Z,9.82
2022-09-05T06:38:31.697Z,10.05
2022-09-05T06:43:51.376Z,8.50
2022-09-05T06:49:30.424Z,8.80
2022-09-05T06:54:37.349Z,7.57
2022-09-05T07:00:10.370Z,8.57
2022-09-05T07:05:45.183Z,8.25
2022-09-05T07:10:56.776Z,8.63
2022-09-05T07:16:24.406Z,8.43
2022-09-05T07:21:44.858Z,8.90
2022-09-05T07:26:53.709Z,8.30
2022-09-05T07:32:01.958Z,8.95
2022-09-05T07:37:14.947Z,8.85
2022-09-05T07:42:23.755Z,9.35
2022-09-05T07:47:32.163Z,9.63
2022-09-05T07:56:50.753Z,9.57
2022-09-05T07:58:07.774Z,8.15
2022-09-05T08:03:14.626Z,8.15
2022-09-05T08:08:20.261Z,7.90
2022-09-05T08:13:30.299Z,7.57
2022-09-05T08:18:38.432Z,7.60
2022-09-05T08:23:53.157Z,6.75
2022-09-05T08:29:04.276Z,6.85
2022-09-05T08:34:12.619Z,6.57
2022-09-05T08:39:20.438Z,6.03
2022-09-05T08:46:44.400Z,5.95
2022-09-05T08:50:26.917Z,5.38
2022-09-05T08:55:40.529Z,5.25
2022-09-05T09:00:55.593Z,5.30
2022-09-05T09:06:16.986Z,6.22
2022-09-05T09:11:30.883Z,5.28
2022-09-05T09:16:40.856Z,4.95
2022-09-05T09:21:50.640Z,5.25
2022-09-05T09:26:58.060Z,5.90
2022-09-05T09:32:06.879Z,5.45
2022-09-05T09:37:55.320Z,5.45
2022-09-05T09:43:07.378Z,5.70
2022-09-05T09:48:40.886Z,5.32
2022-09-05T09:54:03.140Z,4.90
2022-09-05T09:59:54.189Z,4.70
2022-09-05T10:10:34.023Z,4.63
2022-09-05T10:11:52.427Z,4.50
2022-09-05T10:16:54.866Z,3.78
2022-09-05T10:22:38.000Z,4.15
2022-09-05T10:27:57.652Z,3.92
2022-09-05T10:35:15.397Z,3.28
2022-09-05T10:38:47.294Z,3.00
2022-09-05T10:43:56.976Z,3.10
2022-09-05T10:49:07.949Z,2.97
2022-09-05T10:54:30.205Z,3.30
2022-09-05T11:02:21.333Z,3.17
2022-09-05T11:05:23.579Z,3.20
2022-09-05T11:10:34.687Z,3.17
2022-09-05T11:16:04.308Z,2.80
2022-09-05T11:21:12.742Z,2.70
2022-09-05T11:26:27.633Z,2.95
2022-09-05T11:32:17.541Z,3.00
2022-09-05T11:40:08.919Z,2.60
2022-09-05T11:42:49.614Z,2.40
2022-09-05T11:48:28.621Z,2.90
2022-09-05T11:54:09.774Z,3.13
2022-09-05T11:59:38.911Z,3.05
2022-09-05T12:05:50.166Z,3.10
2022-09-05T12:10:43.593Z,3.15
2022-09-05T12:16:08.248Z,3.47
2022-09-05T12:21:26.870Z,3.22
2022-09-05T12:27:42.270Z,3.28
2022-09-05T12:34:03.456Z,3.70
2022-09-05T12:40:58.023Z,3.63
2022-09-05T12:44:00.751Z,3.42
2022-09-05T12:48:38.949Z,3.97
2022-09-05T12:53:45.927Z,3.72
2022-09-05T13:03:01.433Z,3.90
2022-09-05T13:04:25.255Z,4.00
2022-09-05T13:10:34.040Z,3.22
2022-09-05T13:15:21.507Z,4.07
2022-09-05T13:20:34.114Z,3.60
2022-09-05T13:25:41.406Z,3.70
2022-09-05T13:37:55.196Z,4.30
2022-09-05T13:38:08.169Z,4.00
2022-09-05T13:41:53.874Z,4.20
2022-09-05T13:47:00.764Z,4.20
2022-09-05T13:52:21.141Z,4.25
2022-09-05T13:57:37.848Z,3.65
2022-09-05T14:08:41.106Z,3.40
2022-09-05T14:14:04.834Z,3.30
2022-09-05T14:19:35.267Z,3.25
2022-09-05T14:24:52.940Z,3.25
2022-09-05T14:30:19.735Z,3.00
2022-09-05T14:37:48.904Z,3.13
2022-09-05T14:41:43.185Z,2.90
2022-09-05T14:47:47.515Z,2.90
2022-09-05T15:02:44.026Z,2.83
2022-09-05T15:12:16.122Z,2.80
2022-09-05T15:14:46.802Z,2.92
2022-09-05T15:20:06.249Z,3.20
2022-09-05T15:25:19.030Z,3.10
2022-09-05T15:30:31.856Z,3.85
2022-09-05T15:35:43.796Z,3.15
2022-09-05T15:40:46.503Z,3.38
2022-09-05T15:45:49.798Z,3.92
2022-09-05T15:50:56.344Z,4.10
2022-09-05T15:56:14.080Z,4.15
2022-09-05T16:01:30.410Z,4.00
2022-09-05T16:10:41.440Z,4.25
2022-09-05T16:12:19.836Z,4.70
2022-09-05T16:23:18.356Z,5.22
2022-09-05T16:23:24.619Z,5.03
2022-09-05T16:28:23.917Z,5.38
2022-09-05T16:33:28.453Z,5.00
2022-09-05T16:38:49.743Z,5.35
2022-09-05T16:43:56.478Z,6.00
2022-09-05T16:49:11.953Z,5.65
2022-09-05T16:54:23.248Z,5.88
2022-09-05T16:59:29.869Z,6.60
2022-09-05T17:05:04.138Z,6.35
2022-09-05T17:10:11.583Z,6.85
2022-09-05T17:15:17.627Z,6.78
2022-09-05T17:20:23.057Z,6.68
2022-09-05T17:29:25.747Z,6.68
2022-09-05T17:36:40.910Z,7.43
2022-09-05T17:42:01.604Z,7.05
2022-09-05T17:47:15.325Z,6.93
2022-09-05T17:52:23.576Z,7.10
2022-09-05T17:57:39.270Z,7.15
2022-09-05T18:02:54.706Z,7.07
2022-09-05T18:07:58.124Z,7.30
2022-09-05T18:13:32.524Z,7.30
2022-09-05T18:19:28.517Z,6.78
2022-09-05T18:24:04.570Z,6.97
2022-09-05T18:29:24.706Z,7.00
2022-09-05T18:35:09.042Z,7.85
2022-09-05T18:40:36.831Z,7.22
2022-09-05T18:45:52.457Z,7.30
2022-09-05T18:51:15.415Z,7.13
2022-09-05T18:56:27.583Z,7.72
2022-09-05T19:01:38.146Z,7.90
2022-09-05T19:06:49.349Z,7.30
2022-09-05T19:12:31.849Z,7.28
2022-09-05T19:17:34.680Z,7.47
2022-09-05T19:23:10.314Z,7.80
2022-09-05T19:36:45.426Z,7.10
2022-09-05T19:36:50.765Z,7.10
2022-09-05T19:41:19.933Z,7.07
2022-09-05T19:47:49.885Z,6.70
2022-09-05T19:50:05.631Z,7.05
2022-09-05T19:55:20.395Z,8.00
2022-09-05T20:00:25.263Z,7.40
2022-09-05T20:05:29.775Z,7.47
2022-09-05T20:10:34.248Z,7.22
2022-09-05T20:15:38.852Z,7.35
2022-09-05T20:20:51.678Z,7.15
2022-09-05T20:25:56.450Z,7.07
2022-09-05T20:31:02.002Z,7.35
2022-09-05T20:43:10.236Z,7.32
2022-09-05T20:43:16.876Z,7.30
2022-09-05T20:52:58.518Z,7.38
2022-09-05T20:54:26.878Z,7.70
2022-09-05T20:57:57.411Z,7.57
2022-09-05T21:03:01.885Z,8.05
2022-09-05T21:08:30.996Z,7.07
2022-09-05T21:13:36.292Z,8.27
2022-09-05T21:18:42.854Z,8.40
2022-09-05T21:23:47.009Z,7.95
2022-09-05T21:29:05.483Z,8.27
2022-09-05T21:34:13.128Z,7.95
2022-09-05T21:39:20.005Z,8.00
2022-09-05T21:47:42.353Z,8.23
2022-09-05T21:49:45.584Z,8.43
2022-09-05T21:59:14.018Z,8.35
2022-09-05T22:00:15.484Z,8.50
2022-09-05T22:05:20.083Z,8.65
2022-09-05T22:10:32.455Z,8.60
2022-09-05T22:15:48.473Z,9.25
2022-09-05T22:21:31.914Z,9.60
2022-09-05T22:26:19.853Z,9.50
2022-09-05T22:31:23.318Z,9.60
2022-09-05T22:36:26.519Z,9.70
2022-09-05T22:41:31.140Z,10.50
2022-09-05T22:46:34.111Z,9.60
2022-09-05T22:51:36.831Z,9.45
2022-09-05T22:56:40.998Z,10.07
2022-09-05T23:01:43.907Z,9.50
2022-09-05T23:06:46.705Z,9.77
2022-09-05T23:11:50.728Z,10.20
2022-09-05T23:16:53.938Z,10.55
2022-09-05T23:21:56.669Z,10.10
2022-09-05T23:27:00.928Z,10.55
2022-09-05T23:32:03.960Z,10.13
2022-09-05T23:37:08.238Z,10.25
2022-09-05T23:42:13.371Z,11.18
2022-09-05T23:47:16.118Z,10.98
2022-09-05T23:52:18.856Z,10.80
2022-09-05T23:57:24.001Z,11.05
